createdAt,value
2018-06-21T00:00:13.808Z,18.90
2018-06-21T00:02:43.456Z,19.00
2018-06-21T00:05:12.382Z,18.90
2018-06-21T00:07:41.419Z,18.90
2018-06-21T00:12:39.383Z,18.70
2018-06-21T00:15:09.386Z,18.60
2018-06-21T00:17:38.345Z,18.80
2018-06-21T00:20:07.952Z,18.80
2018-06-21T00:22:37.598Z,18.80
2018-06-21T00:25:07.958Z,18.80
2018-06-21T00:27:37.007Z,18.70
2018-06-21T00:30:06.772Z,18.80
2018-06-21T00:32:37.374Z,18.80
2018-06-21T00:35:06.828Z,18.70
2018-06-21T00:37:36.056Z,18.80
2018-06-21T00:40:05.818Z,18.80
2018-06-21T00:42:36.901Z,18.80
2018-06-21T00:45:06.065Z,18.70
2018-06-21T00:47:35.386Z,18.70
2018-06-21T00:50:04.754Z,18.80
2018-06-21T00:52:34.513Z,18.70
2018-06-21T00:55:03.797Z,18.60
2018-06-21T00:57:33.439Z,18.90
2018-06-21T01:00:03.089Z,18.70
2018-06-21T01:02:32.247Z,18.70
2018-06-21T01:05:00.935Z,18.70
2018-06-21T01:07:30.332Z,18.70
2018-06-21T01:09:59.265Z,19.10
2018-06-21T01:12:29.274Z,19.10
2018-06-21T01:14:58.661Z,18.90
2018-06-21T01:17:27.945Z,19.00
2018-06-21T01:19:58.309Z,19.00
2018-06-21T01:22:27.591Z,18.90
2018-06-21T01:24:56.996Z,18.80
2018-06-21T01:27:25.938Z,18.80
2018-06-21T01:29:55.954Z,18.80
2018-06-21T01:32:26.081Z,18.70
2018-06-21T01:34:56.527Z,18.70
2018-06-21T01:37:26.292Z,18.80
2018-06-21T01:39:55.220Z,18.80
2018-06-21T01:42:24.863Z,18.70
2018-06-21T01:44:54.028Z,18.80
2018-06-21T01:47:24.383Z,19.10
2018-06-21T01:49:53.435Z,19.00
2018-06-21T01:52:22.491Z,19.00
2018-06-21T01:54:51.992Z,19.10
2018-06-21T01:57:23.796Z,19.00
2018-06-21T01:59:53.199Z,19.00
2018-06-21T02:02:22.127Z,18.90
2018-06-21T02:04:51.165Z,19.00
2018-06-21T02:07:20.096Z,19.10
2018-06-21T02:09:49.138Z,18.90
2018-06-21T02:12:18.534Z,19.00
2018-06-21T02:14:47.703Z,19.00
2018-06-21T02:17:16.860Z,19.20
2018-06-21T02:19:46.511Z,19.20
2018-06-21T02:22:15.546Z,19.10
2018-06-21T02:24:45.069Z,19.00
2018-06-21T02:27:14.715Z,18.80
2018-06-21T02:29:43.645Z,18.90
2018-06-21T02:32:13.519Z,18.90
2018-06-21T02:34:42.564Z,19.00
2018-06-21T02:37:11.726Z,18.90
2018-06-21T02:39:41.031Z,18.70
2018-06-21T02:42:10.172Z,18.70
2018-06-21T02:44:39.216Z,18.50
2018-06-21T02:49:37.302Z,18.80
2018-06-21T02:52:06.472Z,18.90
2018-06-21T02:54:35.514Z,19.00
2018-06-21T02:57:04.559Z,19.00
2018-06-21T03:02:02.878Z,18.90
2018-06-21T03:04:31.927Z,19.20
2018-06-21T03:07:00.974Z,19.20
2018-06-21T03:09:30.971Z,19.20
2018-06-21T03:12:00.134Z,19.30
2018-06-21T03:14:29.542Z,19.30
2018-06-21T03:17:00.375Z,19.20
2018-06-21T03:19:29.547Z,19.20
2018-06-21T03:21:58.389Z,19.20
2018-06-21T03:24:28.347Z,19.30
2018-06-21T03:26:57.509Z,19.30
2018-06-21T03:29:26.438Z,19.30
2018-06-21T03:31:55.604Z,19.30
2018-06-21T03:34:25.003Z,19.40
2018-06-21T03:36:54.161Z,19.30
2018-06-21T03:39:23.331Z,19.10
2018-06-21T03:41:52.495Z,19.30
2018-06-21T03:44:21.770Z,19.20
2018-06-21T03:46:50.944Z,19.20
2018-06-21T03:49:20.339Z,19.20
2018-06-21T03:51:50.942Z,19.10
2018-06-21T03:54:19.992Z,19.00
2018-06-21T03:56:49.030Z,19.00
2018-06-21T03:59:19.394Z,19.10
2018-06-21T04:01:48.793Z,19.00
2018-06-21T04:04:18.797Z,19.00
2018-06-21T04:06:49.423Z,18.90
2018-06-21T04:09:19.168Z,18.90
2018-06-21T04:11:49.165Z,18.90
2018-06-21T04:14:18.725Z,18.90
2018-06-21T04:16:48.334Z,18.80
2018-06-21T04:19:17.385Z,18.70
2018-06-21T04:21:47.504Z,18.70
2018-06-21T04:24:17.380Z,18.80
2018-06-21T04:26:46.192Z,18.90
2018-06-21T04:29:15.715Z,18.90
2018-06-21T04:31:45.233Z,19.00
2018-06-21T04:34:14.282Z,18.90
2018-06-21T04:36:44.523Z,19.10
2018-06-21T04:39:13.207Z,19.00
2018-06-21T04:41:42.243Z,19.10
2018-06-21T04:44:11.405Z,19.10
2018-06-21T04:46:40.571Z,19.10
2018-06-21T04:49:10.092Z,19.10
2018-06-21T04:51:39.376Z,19.10
2018-06-21T04:54:09.021Z,19.20
2018-06-21T04:56:38.541Z,19.30
2018-06-21T04:59:08.906Z,19.20
2018-06-21T05:01:38.067Z,19.20
2018-06-21T05:04:08.311Z,19.30
2018-06-21T05:06:37.725Z,19.30
2018-06-21T05:09:11.830Z,19.60
2018-06-21T05:11:40.970Z,19.60
2018-06-21T05:14:10.371Z,19.50
2018-06-21T05:16:39.439Z,19.50
2018-06-21T05:19:08.810Z,19.60
2018-06-21T05:21:37.974Z,19.70
2018-06-21T05:24:07.618Z,19.80
2018-06-21T05:29:05.470Z,19.80
2018-06-21T05:31:35.828Z,19.90
2018-06-21T05:34:04.870Z,19.90
2018-06-21T05:36:33.848Z,19.80
2018-06-21T05:39:03.318Z,19.90
2018-06-21T05:41:32.843Z,20.00
2018-06-21T05:44:01.885Z,20.20
2018-06-21T05:46:31.286Z,20.30
2018-06-21T05:49:00.337Z,20.50
2018-06-21T05:51:29.732Z,20.70
2018-06-21T05:53:58.540Z,20.80
2018-06-21T05:56:27.350Z,20.90
2018-06-21T05:58:56.500Z,21.00
2018-06-21T06:01:27.823Z,20.90
2018-06-21T06:03:57.350Z,20.90
2018-06-21T06:06:27.362Z,20.80
2018-06-21T06:08:56.763Z,20.80
2018-06-21T06:13:54.724Z,20.80
2018-06-21T06:16:23.767Z,21.00
2018-06-21T06:18:54.487Z,21.00
2018-06-21T06:21:23.655Z,21.00
2018-06-21T06:23:52.955Z,21.00
2018-06-21T06:26:22.338Z,21.00
2018-06-21T06:28:53.781Z,21.10
2018-06-21T06:31:23.182Z,21.20
2018-06-21T06:33:54.272Z,21.30
2018-06-21T06:36:25.348Z,21.30
2018-06-21T06:38:54.399Z,21.30
2018-06-21T06:41:23.558Z,21.50
2018-06-21T06:43:52.480Z,21.50
2018-06-21T06:46:21.101Z,21.50
2018-06-21T06:48:49.537Z,21.40
2018-06-21T06:51:18.078Z,21.50
2018-06-21T06:53:46.553Z,21.60
2018-06-21T06:56:15.085Z,21.60
2018-06-21T06:58:43.588Z,21.60
2018-06-21T07:01:12.060Z,21.60
2018-06-21T07:03:40.620Z,21.60
2018-06-21T07:06:09.089Z,21.60
2018-06-21T07:08:37.641Z,21.50
2018-06-21T07:11:06.536Z,21.50
2018-06-21T07:13:35.011Z,21.50
2018-06-21T07:16:03.549Z,21.60
2018-06-21T07:18:32.101Z,21.70
2018-06-21T07:21:00.569Z,21.60
2018-06-21T07:23:29.177Z,21.60
2018-06-21T07:25:57.650Z,21.60
2018-06-21T07:28:26.274Z,21.80
2018-06-21T07:30:54.751Z,21.80
2018-06-21T07:33:23.233Z,21.80
2018-06-21T07:35:51.732Z,21.90
2018-06-21T07:38:20.225Z,22.00
2018-06-21T07:40:48.729Z,22.10
2018-06-21T07:43:17.221Z,22.00
2018-06-21T07:45:45.684Z,21.90
2018-06-21T07:48:14.165Z,22.00
2018-06-21T07:50:42.876Z,22.10
2018-06-21T07:53:11.715Z,22.20
2018-06-21T07:55:40.177Z,22.20
2018-06-21T07:58:09.185Z,22.20
2018-06-21T08:00:37.760Z,22.30
2018-06-21T08:03:06.281Z,22.30
2018-06-21T08:05:34.933Z,22.30
2018-06-21T08:08:03.578Z,22.10
2018-06-21T08:10:32.117Z,22.20
2018-06-21T08:13:00.770Z,22.30
2018-06-21T08:15:29.676Z,22.30
2018-06-21T08:17:58.505Z,22.50
2018-06-21T08:20:27.300Z,22.60
2018-06-21T08:22:56.036Z,22.70
2018-06-21T08:25:24.756Z,22.80
2018-06-21T08:27:53.225Z,22.70
2018-06-21T08:30:21.736Z,22.60
2018-06-21T08:32:50.200Z,22.60
2018-06-21T08:35:18.669Z,22.50
2018-06-21T08:37:47.264Z,22.60
2018-06-21T08:40:16.021Z,22.70
2018-06-21T08:42:44.525Z,23.10
2018-06-21T08:45:13.009Z,23.00
2018-06-21T08:47:41.504Z,23.00
2018-06-21T08:50:09.985Z,23.00
2018-06-21T08:52:38.478Z,23.00
2018-06-21T08:55:07.152Z,23.10
2018-06-21T08:57:35.655Z,23.00
2018-06-21T09:00:04.273Z,22.80
2018-06-21T09:02:33.301Z,22.80
2018-06-21T09:05:01.802Z,22.70
2018-06-21T09:07:30.276Z,22.60
2018-06-21T09:09:58.803Z,22.70
2018-06-21T09:12:31.480Z,22.70
2018-06-21T09:14:59.973Z,22.70
2018-06-21T09:17:28.461Z,22.80
2018-06-21T09:19:56.921Z,23.00
2018-06-21T09:22:25.409Z,23.10
2018-06-21T09:24:53.878Z,23.30
2018-06-21T09:27:22.348Z,23.20
2018-06-21T09:29:50.864Z,23.30
2018-06-21T09:32:19.334Z,23.00
2018-06-21T09:34:47.813Z,22.30
2018-06-21T09:37:20.534Z,21.50
2018-06-21T09:39:54.445Z,21.00
2018-06-21T09:42:28.313Z,20.60
2018-06-21T09:44:58.953Z,20.50
2018-06-21T09:47:32.765Z,20.60
2018-06-21T09:50:01.837Z,20.70
2018-06-21T09:52:30.349Z,20.40
2018-06-21T09:54:59.038Z,20.00
2018-06-21T09:57:27.503Z,19.60
2018-06-21T09:59:56.001Z,19.40
2018-06-21T10:02:24.541Z,19.10
2018-06-21T10:04:53.065Z,18.90
2018-06-21T10:07:21.533Z,18.60
2018-06-21T10:09:50.112Z,18.40
2018-06-21T10:12:18.990Z,18.50
2018-06-21T10:14:47.676Z,18.70
2018-06-21T10:17:16.176Z,18.70
2018-06-21T10:19:45.522Z,18.90
2018-06-21T10:22:13.989Z,19.20
2018-06-21T10:24:42.501Z,19.10
2018-06-21T10:27:10.974Z,19.10
2018-06-21T10:29:39.461Z,18.90
2018-06-21T10:32:07.937Z,19.00
2018-06-21T10:34:36.397Z,19.10
2018-06-21T10:37:04.897Z,19.20
2018-06-21T10:39:33.376Z,19.10
2018-06-21T10:42:01.857Z,19.00
2018-06-21T10:44:30.389Z,19.00
2018-06-21T10:46:58.869Z,18.90
2018-06-21T10:49:27.359Z,19.10
2018-06-21T10:51:55.853Z,19.20
2018-06-21T10:54:24.322Z,19.20
2018-06-21T10:56:52.817Z,19.20
2018-06-21T10:59:21.321Z,19.10
2018-06-21T11:01:49.865Z,19.40
2018-06-21T11:04:18.329Z,19.70
2018-06-21T11:06:49.733Z,20.20
2018-06-21T11:09:18.260Z,20.70
2018-06-21T11:11:46.765Z,20.90
2018-06-21T11:14:15.332Z,21.20
2018-06-21T11:16:43.837Z,21.50
2018-06-21T11:19:12.328Z,21.70
2018-06-21T11:21:40.811Z,21.50
2018-06-21T11:24:09.293Z,21.50
2018-06-21T11:26:37.787Z,21.80
2018-06-21T11:29:06.252Z,22.10
2018-06-21T11:31:34.716Z,22.30
2018-06-21T11:34:03.205Z,22.30
2018-06-21T11:36:31.681Z,21.80
2018-06-21T11:39:00.317Z,21.40
2018-06-21T11:41:28.832Z,21.00
2018-06-21T11:43:57.329Z,21.20
2018-06-21T11:46:26.061Z,21.80
2018-06-21T11:48:54.556Z,21.70
2018-06-21T11:51:23.029Z,22.10
2018-06-21T11:53:52.374Z,22.30
2018-06-21T11:56:20.869Z,22.20
2018-06-21T11:58:49.469Z,21.90
2018-06-21T12:01:18.310Z,22.30
2018-06-21T12:03:46.816Z,22.10
2018-06-21T12:06:15.353Z,22.20
2018-06-21T12:08:43.913Z,23.10
2018-06-21T12:11:12.388Z,23.40
2018-06-21T12:13:40.862Z,23.90
2018-06-21T12:16:09.368Z,23.50
2018-06-21T12:18:37.832Z,23.50
2018-06-21T12:21:06.308Z,24.30
2018-06-21T12:23:34.881Z,25.00
2018-06-21T12:26:03.368Z,25.10
2018-06-21T12:28:31.844Z,24.60
2018-06-21T12:31:00.348Z,24.30
2018-06-21T12:33:28.817Z,24.50
2018-06-21T12:35:57.500Z,24.90
2018-06-21T12:38:25.991Z,24.80
2018-06-21T12:40:54.497Z,24.30
2018-06-21T12:43:23.429Z,24.20
2018-06-21T12:45:51.925Z,24.20
2018-06-21T12:48:20.477Z,23.70
2018-06-21T12:50:49.128Z,23.40
2018-06-21T12:53:17.641Z,23.50
2018-06-21T12:55:46.481Z,23.20
2018-06-21T12:58:14.974Z,23.40
2018-06-21T13:00:43.777Z,23.20
2018-06-21T13:03:12.409Z,23.70
2018-06-21T13:05:40.893Z,23.80
2018-06-21T13:08:09.382Z,23.50
2018-06-21T13:12:21.021Z,23.80
2018-06-21T13:14:49.500Z,23.90
2018-06-21T13:17:17.988Z,23.40
2018-06-21T13:19:46.457Z,23.00
2018-06-21T13:22:14.969Z,22.50
2018-06-21T13:24:43.825Z,22.70
2018-06-21T13:27:12.329Z,22.90
2018-06-21T13:29:41.237Z,22.80
2018-06-21T13:32:09.689Z,23.20
2018-06-21T13:34:38.583Z,23.30
2018-06-21T13:37:07.768Z,23.30
2018-06-21T13:39:36.263Z,23.40
2018-06-21T13:42:04.941Z,23.30
2018-06-21T13:44:33.409Z,23.20
2018-06-21T13:47:02.548Z,23.20
2018-06-21T13:49:31.002Z,23.10
2018-06-21T13:51:59.754Z,23.10
2018-06-21T13:54:28.637Z,23.60
2018-06-21T13:56:57.164Z,23.50
2018-06-21T13:59:25.629Z,23.20
2018-06-21T14:01:54.116Z,23.10
2018-06-21T14:04:22.700Z,23.00
2018-06-21T14:06:51.242Z,23.50
2018-06-21T14:09:19.725Z,23.10
2018-06-21T14:11:48.229Z,23.10
2018-06-21T14:14:16.713Z,22.60
2018-06-21T14:16:45.190Z,22.60
2018-06-21T14:19:13.703Z,22.50
2018-06-21T14:21:43.308Z,22.30
2018-06-21T14:24:12.996Z,22.20
2018-06-21T14:26:41.797Z,22.40
2018-06-21T14:29:10.323Z,22.10
2018-06-21T14:31:38.825Z,22.20
2018-06-21T14:34:07.317Z,22.10
2018-06-21T14:36:35.809Z,22.10
2018-06-21T14:39:06.554Z,22.40
2018-06-21T14:41:35.035Z,22.40
2018-06-21T14:44:03.721Z,21.90
2018-06-21T14:46:32.341Z,21.60
2018-06-21T14:51:19.308Z,21.60
2018-06-21T14:54:04.599Z,21.70
2018-06-21T15:01:44.928Z,21.90
2018-06-21T15:07:34.145Z,21.70
2018-06-21T15:10:18.108Z,21.40
2018-06-21T15:13:01.963Z,21.40
2018-06-21T15:15:36.595Z,21.20
2018-06-21T15:18:16.663Z,20.90
2018-06-21T15:20:55.397Z,21.20
2018-06-21T15:23:35.873Z,21.40
2018-06-21T15:26:15.636Z,21.30
2018-06-21T15:34:50.443Z,21.60
2018-06-21T15:38:28.168Z,21.30
2018-06-21T15:41:05.673Z,21.20
2018-06-21T15:43:58.866Z,21.40
2018-06-21T15:46:52.429Z,21.10
2018-06-21T15:49:32.805Z,20.70
2018-06-21T15:52:23.311Z,21.00
2018-06-21T15:55:04.099Z,21.00
2018-06-21T16:04:05.433Z,20.60
2018-06-21T16:06:47.240Z,20.30
2018-06-21T16:09:38.271Z,20.50
2018-06-21T16:12:25.202Z,20.40
2018-06-21T16:15:06.689Z,20.40
2018-06-21T16:17:50.136Z,20.80
2018-06-21T16:20:32.874Z,20.90
2018-06-21T16:23:32.285Z,20.60
2018-06-21T16:26:05.899Z,20.50
2018-06-21T16:28:38.832Z,20.40
2018-06-21T16:31:19.354Z,20.10
2018-06-21T16:33:51.048Z,20.20
2018-06-21T16:36:28.651Z,20.30
2018-06-21T16:39:02.982Z,20.10
2018-06-21T16:42:07.216Z,20.00
2018-06-21T16:44:59.888Z,19.90
2018-06-21T16:48:03.806Z,19.90
2018-06-21T16:51:41.708Z,19.50
2018-06-21T16:54:21.592Z,19.60
2018-06-21T16:56:52.646Z,19.50
2018-06-21T16:59:25.523Z,19.40
2018-06-21T17:01:58.545Z,19.40
2018-06-21T17:04:39.535Z,19.60
2018-06-21T17:07:12.634Z,19.30
2018-06-21T17:09:50.652Z,19.20
2018-06-21T17:12:35.140Z,19.30
2018-06-21T17:15:07.819Z,19.20
2018-06-21T17:17:38.869Z,19.40
2018-06-21T17:20:13.798Z,19.20
2018-06-21T17:22:46.916Z,19.20
2018-06-21T17:25:20.792Z,19.20
2018-06-21T17:27:53.222Z,19.40
2018-06-21T17:30:27.689Z,19.20
2018-06-21T17:33:02.416Z,19.10
2018-06-21T17:35:34.276Z,19.00
2018-06-21T17:38:06.656Z,19.00
2018-06-21T17:40:38.630Z,18.70
2018-06-21T17:43:11.295Z,18.60
2018-06-21T17:45:49.648Z,18.40
2018-06-21T17:48:28.077Z,18.40
2018-06-21T17:51:01.414Z,18.20
2018-06-21T17:53:38.906Z,18.10
2018-06-21T17:56:16.607Z,18.20
2018-06-21T17:58:51.338Z,18.30
2018-06-21T18:01:29.665Z,18.40
2018-06-21T18:04:16.592Z,18.20
2018-06-21T18:06:50.205Z,18.40
2018-06-21T18:09:23.043Z,18.60
2018-06-21T18:11:55.753Z,18.90
2018-06-21T18:14:29.631Z,19.20
2018-06-21T18:17:02.516Z,19.00
2018-06-21T18:24:34.036Z,18.70
2018-06-21T18:27:08.013Z,18.60
2018-06-21T18:29:39.159Z,18.30
2018-06-21T18:32:14.264Z,18.60
2018-06-21T18:34:47.569Z,18.90
2018-06-21T18:37:19.962Z,18.70
2018-06-21T18:42:40.599Z,18.60
2018-06-21T18:45:21.279Z,18.30
2018-06-21T18:53:27.934Z,18.20
2018-06-21T18:56:05.142Z,17.80
2018-06-21T19:01:22.496Z,16.60
2018-06-21T19:04:01.222Z,16.00
2018-06-21T19:06:40.540Z,15.60
2018-06-21T19:09:19.621Z,15.40
2018-06-21T19:12:09.047Z,15.30
2018-06-21T19:14:41.700Z,15.10
2018-06-21T19:17:14.914Z,14.90
2018-06-21T19:19:49.540Z,15.00
2018-06-21T19:22:25.207Z,14.90
2018-06-21T19:24:57.285Z,14.80
2018-06-21T19:27:31.470Z,14.80
2018-06-21T19:32:42.022Z,14.60
2018-06-21T19:35:18.812Z,14.50
2018-06-21T19:37:56.013Z,14.40
2018-06-21T19:40:28.497Z,14.40
2018-06-21T19:43:02.327Z,14.40
2018-06-21T19:45:38.281Z,14.40
2018-06-21T19:48:11.701Z,14.30
2018-06-21T19:50:42.552Z,14.20
2018-06-21T19:53:18.730Z,14.20
2018-06-21T19:55:52.046Z,14.10
2018-06-21T19:58:25.030Z,14.10
2018-06-21T20:00:57.305Z,14.00
2018-06-21T20:03:30.202Z,14.00
2018-06-21T20:06:06.376Z,14.00
2018-06-21T20:08:44.803Z,14.00
2018-06-21T20:11:24.562Z,14.00
2018-06-21T20:14:07.905Z,14.00
2018-06-21T20:16:54.217Z,13.90
2018-06-21T20:20:39.826Z,13.80
2018-06-21T20:23:26.754Z,13.70
2018-06-21T20:26:17.264Z,13.70
2018-06-21T20:28:59.482Z,13.50
2018-06-21T20:32:10.396Z,13.60
2018-06-21T20:34:50.335Z,13.60
2018-06-21T20:37:45.661Z,13.60
2018-06-21T20:40:24.190Z,13.50
2018-06-21T20:45:58.260Z,13.40
2018-06-21T20:49:00.580Z,13.40
2018-06-21T20:51:37.328Z,13.40
2018-06-21T20:54:20.300Z,13.30
2018-06-21T20:56:48.833Z,13.20
2018-06-21T20:59:17.373Z,13.20
2018-06-21T21:01:45.870Z,13.20
2018-06-21T21:04:14.328Z,13.10
2018-06-21T21:06:42.816Z,13.20
2018-06-21T21:09:11.369Z,13.00
2018-06-21T21:11:39.838Z,13.00
2018-06-21T21:14:09.157Z,13.10
2018-06-21T21:16:37.765Z,13.10
2018-06-21T21:19:06.434Z,13.10
2018-06-21T21:21:35.329Z,13.10
2018-06-21T21:24:03.879Z,13.00
2018-06-21T21:29:00.970Z,13.00
2018-06-21T21:31:29.794Z,13.10
2018-06-21T21:33:58.446Z,13.00
2018-06-21T21:36:27.043Z,13.00
2018-06-21T21:38:55.813Z,12.90
2018-06-21T21:41:24.505Z,12.90
2018-06-21T21:43:53.106Z,12.80
2018-06-21T21:46:21.605Z,12.70
2018-06-21T21:48:50.076Z,12.70
2018-06-21T21:51:18.551Z,12.60
2018-06-21T21:53:47.076Z,12.60
2018-06-21T21:56:15.548Z,12.70
2018-06-21T21:58:44.027Z,12.60
2018-06-21T22:01:12.554Z,12.60
2018-06-21T22:03:41.026Z,12.70
2018-06-21T22:06:09.521Z,12.60
2018-06-21T22:08:37.986Z,12.50
2018-06-21T22:11:06.541Z,12.50
2018-06-21T22:13:35.093Z,12.50
2018-06-21T22:16:03.585Z,12.50
2018-06-21T22:18:32.077Z,12.50
2018-06-21T22:21:00.577Z,12.50
2018-06-21T22:23:29.053Z,12.50
2018-06-21T22:25:57.541Z,12.50
2018-06-21T22:28:26.034Z,12.50
2018-06-21T22:30:54.533Z,12.40
2018-06-21T22:33:23.048Z,12.40
2018-06-21T22:35:51.568Z,12.30
2018-06-21T22:38:20.047Z,12.50
2018-06-21T22:40:48.669Z,12.40
2018-06-21T22:43:17.141Z,12.40
2018-06-21T22:45:45.605Z,12.40
2018-06-21T22:48:14.125Z,12.20
2018-06-21T22:50:42.706Z,12.20
2018-06-21T22:53:11.097Z,12.20
2018-06-21T22:55:39.592Z,12.20
2018-06-21T22:58:08.116Z,12.10
2018-06-21T23:00:37.536Z,12.00
2018-06-21T23:03:09.313Z,12.00
2018-06-21T23:05:39.678Z,12.00
2018-06-21T23:08:09.201Z,12.10
2018-06-21T23:10:38.483Z,12.10
2018-06-21T23:13:09.208Z,12.00
2018-06-21T23:15:38.495Z,11.90
2018-06-21T23:18:08.742Z,11.80
2018-06-21T23:20:38.017Z,11.90
2018-06-21T23:23:07.780Z,11.90
2018-06-21T23:25:37.098Z,11.90
2018-06-21T23:28:06.586Z,11.80
2018-06-21T23:30:39.590Z,11.90
2018-06-21T23:33:09.354Z,11.90
2018-06-21T23:35:39.597Z,12.00
2018-06-21T23:38:08.763Z,11.90
2018-06-21T23:40:38.044Z,11.80
2018-06-21T23:43:07.925Z,11.80
2018-06-21T23:45:36.976Z,11.80
2018-06-21T23:48:06.251Z,11.80
2018-06-21T23:50:35.413Z,11.80
2018-06-21T23:53:04.466Z,11.80
2018-06-21T23:55:33.739Z,11.80
2018-06-21T23:58:05.185Z,11.80
